createdAt,value
2018-04-17T00:00:45.472Z,102115.17
2018-04-17T00:01:51.830Z,102119.72
2018-04-17T00:02:57.292Z,102116.10
2018-04-17T00:04:05.894Z,102121.91
2018-04-17T00:05:12.301Z,102122.30
2018-04-17T00:06:17.784Z,102123.98
2018-04-17T00:07:23.570Z,102119.95
2018-04-17T00:08:28.432Z,102125.66
2018-04-17T00:09:32.549Z,102131.81
2018-04-17T00:10:38.459Z,102124.68
2018-04-17T00:11:43.238Z,102122.61
2018-04-17T00:12:47.991Z,102123.05
2018-04-17T00:13:52.692Z,102128.27
2018-04-17T00:14:57.412Z,102123.84
2018-04-17T00:16:02.684Z,102130.97
2018-04-17T00:17:07.716Z,102124.77
2018-04-17T00:18:14.123Z,102127.47
2018-04-17T00:19:20.822Z,102128.63
2018-04-17T00:20:27.071Z,102131.04
2018-04-17T00:21:31.979Z,102129.27
2018-04-17T00:22:36.842Z,102128.75
2018-04-17T00:23:41.995Z,102129.51
2018-04-17T00:24:48.332Z,102125.80
2018-04-17T00:25:53.888Z,102135.34
2018-04-17T00:26:58.653Z,102135.20
2018-04-17T00:28:02.860Z,102138.69
2018-04-17T00:29:07.330Z,102137.84
2018-04-17T00:30:14.157Z,102144.00
2018-04-17T00:31:18.901Z,102141.38
2018-04-17T00:32:23.016Z,102140.11
2018-04-17T00:33:28.403Z,102137.02
2018-04-17T00:34:33.011Z,102145.08
2018-04-17T00:35:39.027Z,102134.65
2018-04-17T00:36:44.775Z,102134.30
2018-04-17T00:37:51.883Z,102139.08
2018-04-17T00:38:57.386Z,102145.08
2018-04-17T00:40:02.349Z,102151.17
2018-04-17T00:41:07.727Z,102142.22
2018-04-17T00:42:12.912Z,102142.12
2018-04-17T00:43:19.198Z,102149.13
2018-04-17T00:44:25.001Z,102142.37
2018-04-17T00:45:29.491Z,102150.23
2018-04-17T00:46:34.629Z,102147.94
2018-04-17T00:47:40.649Z,102145.67
2018-04-17T00:48:45.838Z,102142.56
2018-04-17T00:49:51.067Z,102143.20
2018-04-17T00:50:57.207Z,102147.35
2018-04-17T00:52:03.166Z,102148.20
2018-04-17T00:53:16.981Z,102149.02
2018-04-17T00:54:23.865Z,102145.09
2018-04-17T00:55:30.496Z,102146.86
2018-04-17T00:56:35.587Z,102143.71
2018-04-17T00:57:40.359Z,102148.02
2018-04-17T00:58:45.638Z,102154.95
2018-04-17T00:59:50.371Z,102159.67
2018-04-17T01:00:54.973Z,102156.45
2018-04-17T01:01:59.119Z,102151.98
2018-04-17T01:03:03.817Z,102157.70
2018-04-17T01:04:08.547Z,102160.73
2018-04-17T01:05:13.923Z,102154.05
2018-04-17T01:06:18.774Z,102160.66
2018-04-17T01:07:26.928Z,102157.96
2018-04-17T01:08:32.331Z,102156.62
2018-04-17T01:09:37.215Z,102157.45
2018-04-17T01:10:41.315Z,102160.23
2018-04-17T01:11:48.421Z,102158.16
2018-04-17T01:12:53.156Z,102156.77
2018-04-17T01:14:01.370Z,102157.56
2018-04-17T01:15:08.175Z,102156.19
2018-04-17T01:16:15.382Z,102160.24
2018-04-17T01:17:19.937Z,102159.78
2018-04-17T01:18:25.362Z,102161.02
2018-04-17T01:19:30.161Z,102166.27
2018-04-17T01:20:36.403Z,102159.78
2018-04-17T01:21:40.616Z,102162.42
2018-04-17T01:22:45.916Z,102166.84
2018-04-17T01:23:51.183Z,102169.95
2018-04-17T01:24:55.936Z,102162.42
2018-04-17T01:26:00.692Z,102164.94
2018-04-17T01:27:05.850Z,102173.24
2018-04-17T01:28:11.110Z,102172.24
2018-04-17T01:29:15.856Z,102171.41
2018-04-17T01:30:21.737Z,102169.20
2018-04-17T01:31:27.111Z,102172.83
2018-04-17T01:32:32.273Z,102169.82
2018-04-17T01:33:38.023Z,102172.83
2018-04-17T01:34:42.839Z,102171.85
2018-04-17T01:35:50.535Z,102168.69
2018-04-17T01:36:56.158Z,102167.34
2018-04-17T01:38:00.372Z,102164.28
2018-04-17T01:39:04.798Z,102170.15
2018-04-17T01:40:09.576Z,102161.53
2018-04-17T01:41:15.031Z,102166.55
2018-04-17T01:42:19.836Z,102167.83
2018-04-17T01:43:25.026Z,102168.75
2018-04-17T01:44:29.622Z,102167.35
2018-04-17T01:45:35.532Z,102167.31
2018-04-17T01:46:41.183Z,102168.17
2018-04-17T01:47:46.707Z,102164.20
2018-04-17T01:48:51.442Z,102168.17
2018-04-17T01:49:56.857Z,102162.22
2018-04-17T01:51:01.710Z,102170.01
2018-04-17T01:52:06.687Z,102167.66
2018-04-17T01:53:13.236Z,102165.73
2018-04-17T01:54:26.397Z,102161.68
2018-04-17T01:55:31.726Z,102166.45
2018-04-17T01:56:37.105Z,102171.73
2018-04-17T01:57:42.484Z,102172.61
2018-04-17T01:58:48.466Z,102164.33
2018-04-17T01:59:57.104Z,102168.80
2018-04-17T02:01:02.981Z,102168.98
2018-04-17T02:02:08.087Z,102169.73
2018-04-17T02:03:13.651Z,102172.68
2018-04-17T02:04:19.220Z,102168.97
2018-04-17T02:05:24.309Z,102175.30
2018-04-17T02:06:29.820Z,102174.91
2018-04-17T02:07:34.476Z,102172.70
2018-04-17T02:08:38.952Z,102168.59
2018-04-17T02:09:44.432Z,102169.59
2018-04-17T02:10:49.852Z,102175.60
2018-04-17T02:11:54.608Z,102174.06
2018-04-17T02:12:59.405Z,102168.98
2018-04-17T02:14:04.463Z,102174.11
2018-04-17T02:15:09.569Z,102176.17
2018-04-17T02:16:15.671Z,102176.97
2018-04-17T02:17:20.395Z,102182.17
2018-04-17T02:18:26.399Z,102178.63
2018-04-17T02:19:30.997Z,102176.44
2018-04-17T02:20:36.673Z,102180.47
2018-04-17T02:21:41.651Z,102175.20
2018-04-17T02:22:54.152Z,102173.08
2018-04-17T02:23:59.142Z,102178.01
2018-04-17T02:25:04.328Z,102174.04
2018-04-17T02:26:08.437Z,102179.31
2018-04-17T02:27:13.040Z,102183.21
2018-04-17T02:28:17.889Z,102182.69
2018-04-17T02:29:22.650Z,102181.28
2018-04-17T02:30:27.285Z,102183.86
2018-04-17T02:31:34.281Z,102181.19
2018-04-17T02:32:38.754Z,102187.31
2018-04-17T02:33:43.567Z,102186.34
2018-04-17T02:34:48.521Z,102190.32
2018-04-17T02:35:53.456Z,102188.72
2018-04-17T02:36:58.208Z,102187.29
2018-04-17T02:38:03.305Z,102183.56
2018-04-17T02:39:07.486Z,102183.78
2018-04-17T02:40:12.282Z,102186.97
2018-04-17T02:41:16.372Z,102181.36
2018-04-17T02:42:22.498Z,102185.80
2018-04-17T02:43:27.240Z,102186.14
2018-04-17T02:44:32.365Z,102185.61
2018-04-17T02:45:37.929Z,102185.13
2018-04-17T02:46:42.709Z,102193.49
2018-04-17T02:47:47.381Z,102187.27
2018-04-17T02:48:53.568Z,102188.63
2018-04-17T02:49:59.390Z,102191.59
2018-04-17T02:51:04.345Z,102195.92
2018-04-17T02:52:09.547Z,102194.95
2018-04-17T02:53:14.927Z,102196.20
2018-04-17T02:54:19.762Z,102195.73
2018-04-17T02:56:39.909Z,102201.58
2018-04-17T02:57:45.000Z,102200.35
2018-04-17T02:58:50.601Z,102203.44
2018-04-17T02:59:54.740Z,102202.64
2018-04-17T03:00:59.770Z,102200.94
2018-04-17T03:02:07.442Z,102200.71
2018-04-17T03:03:12.151Z,102199.69
2018-04-17T03:04:17.243Z,102203.31
2018-04-17T03:05:22.012Z,102203.38
2018-04-17T03:06:26.973Z,102200.75
2018-04-17T03:07:32.438Z,102202.06
2018-04-17T03:08:37.114Z,102201.16
2018-04-17T03:09:41.588Z,102195.94
2018-04-17T03:10:46.682Z,102202.77
2018-04-17T03:11:50.791Z,102198.88
2018-04-17T03:12:55.545Z,102205.12
2018-04-17T03:14:03.095Z,102200.63
2018-04-17T03:15:08.117Z,102197.02
2018-04-17T03:16:12.506Z,102200.95
2018-04-17T03:17:17.561Z,102208.55
2018-04-17T03:18:23.179Z,102205.49
2018-04-17T03:19:27.432Z,102204.55
2018-04-17T03:20:31.519Z,102199.59
2018-04-17T03:21:35.967Z,102202.70
2018-04-17T03:22:40.385Z,102201.36
2018-04-17T03:23:45.552Z,102204.34
2018-04-17T03:24:50.387Z,102203.39
2018-04-17T03:25:56.710Z,102205.88
2018-04-17T03:27:00.921Z,102201.47
2018-04-17T03:28:05.667Z,102204.11
2018-04-17T03:29:10.849Z,102208.47
2018-04-17T03:30:16.775Z,102207.06
2018-04-17T03:31:23.224Z,102203.91
2018-04-17T03:32:31.669Z,102209.51
2018-04-17T03:33:36.412Z,102216.58
2018-04-17T03:34:45.867Z,102213.39
2018-04-17T03:35:53.151Z,102215.01
2018-04-17T03:37:01.166Z,102213.59
2018-04-17T03:38:06.536Z,102216.23
2018-04-17T03:39:11.129Z,102217.09
2018-04-17T03:40:19.430Z,102223.64
2018-04-17T03:41:24.144Z,102222.23
2018-04-17T03:42:28.953Z,102219.97
2018-04-17T03:43:35.523Z,102224.40
2018-04-17T03:44:40.388Z,102222.70
2018-04-17T03:45:45.901Z,102232.41
2018-04-17T03:46:51.288Z,102225.80
2018-04-17T03:47:56.669Z,102232.58
2018-04-17T03:49:01.198Z,102225.87
2018-04-17T03:50:06.916Z,102224.46
2018-04-17T03:51:12.015Z,102222.16
2018-04-17T03:52:16.863Z,102222.53
2018-04-17T03:53:25.508Z,102215.46
2018-04-17T03:54:29.809Z,102216.88
2018-04-17T03:55:36.559Z,102217.19
2018-04-17T03:56:41.887Z,102220.09
2018-04-17T03:57:46.606Z,102220.10
2018-04-17T03:58:58.738Z,102215.16
2018-04-17T04:00:05.841Z,102214.99
2018-04-17T04:01:11.487Z,102225.50
2018-04-17T04:02:16.801Z,102229.40
2018-04-17T04:03:26.147Z,102226.25
2018-04-17T04:04:31.552Z,102229.75
2018-04-17T04:05:37.047Z,102226.23
2018-04-17T04:06:42.437Z,102231.09
2018-04-17T04:07:47.839Z,102234.72
2018-04-17T04:08:57.115Z,102239.67
2018-04-17T04:10:02.424Z,102236.65
2018-04-17T04:11:07.249Z,102242.89
2018-04-17T04:12:12.721Z,102244.16
2018-04-17T04:13:16.923Z,102242.91
2018-04-17T04:14:26.204Z,102248.56
2018-04-17T04:15:30.624Z,102249.38
2018-04-17T04:16:45.163Z,102247.13
2018-04-17T04:18:00.067Z,102249.08
2018-04-17T04:19:15.253Z,102248.52
2018-04-17T04:20:31.466Z,102251.72
2018-04-17T04:22:46.376Z,102249.51
2018-04-17T04:25:10.287Z,102252.83
2018-04-17T04:26:25.153Z,102258.66
2018-04-17T04:27:29.950Z,102255.98
2018-04-17T04:28:37.833Z,102251.42
2018-04-17T04:29:43.383Z,102254.88
2018-04-17T04:30:48.497Z,102258.88
2018-04-17T04:31:54.050Z,102253.98
2018-04-17T04:32:59.419Z,102251.28
2018-04-17T04:34:05.232Z,102252.20
2018-04-17T04:35:10.707Z,102257.09
2018-04-17T04:36:14.868Z,102258.13
2018-04-17T04:37:20.267Z,102256.50
2018-04-17T04:38:27.103Z,102257.45
2018-04-17T04:39:32.314Z,102256.51
2018-04-17T04:40:38.311Z,102260.47
2018-04-17T04:41:43.520Z,102260.92
2018-04-17T04:42:48.235Z,102261.72
2018-04-17T04:43:53.486Z,102261.75
2018-04-17T04:44:59.125Z,102267.63
2018-04-17T04:46:04.260Z,102268.06
2018-04-17T04:47:08.962Z,102265.88
2018-04-17T04:48:13.723Z,102274.79
2018-04-17T04:49:18.455Z,102271.59
2018-04-17T04:50:23.890Z,102273.69
2018-04-17T04:51:28.713Z,102272.66
2018-04-17T04:52:33.704Z,102273.95
2018-04-17T04:53:39.507Z,102277.22
2018-04-17T04:54:44.901Z,102268.01
2018-04-17T04:55:52.657Z,102273.01
2018-04-17T04:57:05.981Z,102271.11
2018-04-17T04:58:11.366Z,102276.31
2018-04-17T04:59:16.866Z,102277.95
2018-04-17T05:00:21.491Z,102275.22
2018-04-17T05:01:28.967Z,102285.75
2018-04-17T05:02:33.106Z,102272.48
2018-04-17T05:03:37.631Z,102289.27
2018-04-17T05:04:43.180Z,102294.13
2018-04-17T05:05:47.923Z,102295.01
2018-04-17T05:06:53.313Z,102293.70
2018-04-17T05:07:57.707Z,102294.27
2018-04-17T05:09:01.875Z,102295.20
2018-04-17T05:10:06.996Z,102301.55
2018-04-17T05:11:12.915Z,102306.89
2018-04-17T05:12:19.709Z,102305.21
2018-04-17T05:13:26.454Z,102306.61
2018-04-17T05:14:31.224Z,102311.19
2018-04-17T05:15:37.416Z,102309.95
2018-04-17T05:16:42.565Z,102311.80
2018-04-17T05:17:47.401Z,102310.55
2018-04-17T05:18:52.424Z,102317.24
2018-04-17T05:19:58.850Z,102317.75
2018-04-17T05:21:03.590Z,102322.30
2018-04-17T05:22:08.374Z,102324.54
2018-04-17T05:23:13.000Z,102330.41
2018-04-17T05:24:17.848Z,102328.33
2018-04-17T05:25:22.868Z,102326.20
2018-04-17T05:26:27.616Z,102331.69
2018-04-17T05:27:32.135Z,102332.39
2018-04-17T05:28:37.540Z,102322.58
2018-04-17T05:29:43.681Z,102332.97
2018-04-17T05:30:48.639Z,102334.31
2018-04-17T05:31:53.412Z,102336.13
2018-04-17T05:32:59.394Z,102343.31
2018-04-17T05:34:05.013Z,102341.98
2018-04-17T05:35:10.659Z,102345.63
2018-04-17T05:36:15.554Z,102355.06
2018-04-17T05:37:20.316Z,102345.78
2018-04-17T05:38:25.117Z,102348.15
2018-04-17T05:39:31.487Z,102355.35
2018-04-17T05:40:37.244Z,102349.17
2018-04-17T05:41:42.191Z,102352.28
2018-04-17T05:42:47.854Z,102357.98
2018-04-17T05:43:52.232Z,102355.31
2018-04-17T05:44:57.036Z,102355.35
2018-04-17T05:46:03.143Z,102355.14
2018-04-17T05:47:08.453Z,102361.99
2018-04-17T05:48:15.458Z,102364.68
2018-04-17T05:49:20.641Z,102361.95
2018-04-17T05:50:27.140Z,102361.57
2018-04-17T05:51:33.711Z,102369.52
2018-04-17T05:52:39.707Z,102362.84
2018-04-17T05:53:45.545Z,102370.27
2018-04-17T05:54:49.674Z,102368.22
2018-04-17T05:55:54.750Z,102368.31
2018-04-17T05:57:00.411Z,102370.11
2018-04-17T05:58:05.955Z,102367.46
2018-04-17T05:59:10.464Z,102370.50
2018-04-17T06:00:18.171Z,102371.39
2018-04-17T06:01:22.990Z,102366.59
2018-04-17T06:02:28.762Z,102380.41
2018-04-17T06:03:35.397Z,102372.41
2018-04-17T06:04:40.309Z,102370.64
2018-04-17T06:05:47.587Z,102374.61
2018-04-17T06:06:53.503Z,102376.38
2018-04-17T06:08:05.683Z,102379.06
2018-04-17T06:09:09.828Z,102376.87
2018-04-17T06:10:15.381Z,102388.88
2018-04-17T06:11:20.105Z,102382.20
2018-04-17T06:12:25.491Z,102383.52
2018-04-17T06:13:30.274Z,102384.44
2018-04-17T06:14:35.398Z,102387.55
2018-04-17T06:15:40.274Z,102387.55
2018-04-17T06:16:46.534Z,102386.23
2018-04-17T06:17:51.162Z,102381.77
2018-04-17T06:18:58.577Z,102387.07
2018-04-17T06:20:03.494Z,102387.08
2018-04-17T06:21:09.185Z,102387.48
2018-04-17T06:22:15.886Z,102389.66
2018-04-17T06:23:20.904Z,102391.23
2018-04-17T06:24:26.315Z,102386.98
2018-04-17T06:25:31.310Z,102391.14
2018-04-17T06:26:37.886Z,102394.94
2018-04-17T06:27:43.862Z,102393.64
2018-04-17T06:28:48.748Z,102397.43
2018-04-17T06:29:54.257Z,102395.30
2018-04-17T06:31:00.750Z,102395.13
2018-04-17T06:32:06.410Z,102400.34
2018-04-17T06:33:11.813Z,102401.95
2018-04-17T06:34:16.026Z,102402.80
2018-04-17T06:35:21.072Z,102405.76
2018-04-17T06:36:26.872Z,102407.64
2018-04-17T06:37:33.117Z,102401.05
2018-04-17T06:38:42.129Z,102400.20
2018-04-17T06:39:47.452Z,102403.72
2018-04-17T06:40:53.174Z,102408.98
2018-04-17T06:41:59.664Z,102406.30
2018-04-17T06:43:03.886Z,102401.66
2018-04-17T06:44:10.088Z,102405.67
2018-04-17T06:45:16.558Z,102406.71
2018-04-17T06:46:21.002Z,102404.57
2018-04-17T06:47:26.385Z,102406.63
2018-04-17T06:48:31.975Z,102406.11
2018-04-17T06:49:36.772Z,102411.41
2018-04-17T06:50:43.198Z,102407.75
2018-04-17T06:51:47.766Z,102411.42
2018-04-17T06:52:53.240Z,102406.84
2018-04-17T06:53:57.378Z,102402.45
2018-04-17T06:55:02.155Z,102405.52
2018-04-17T06:56:07.058Z,102409.63
2018-04-17T06:57:17.694Z,102397.66
2018-04-17T06:58:23.982Z,102407.99
2018-04-17T06:59:31.505Z,102401.77
2018-04-17T07:00:37.624Z,102404.62
2018-04-17T07:01:50.954Z,102403.39
2018-04-17T07:02:55.835Z,102406.98
2018-04-17T07:03:59.960Z,102414.33
2018-04-17T07:05:04.912Z,102411.86
2018-04-17T07:06:09.992Z,102411.34
2018-04-17T07:07:14.205Z,102417.81
2018-04-17T07:08:18.965Z,102412.84
2018-04-17T07:09:24.287Z,102413.81
2018-04-17T07:10:30.659Z,102411.53
2018-04-17T07:11:36.315Z,102418.61
2018-04-17T07:12:42.031Z,102422.28
2018-04-17T07:13:47.652Z,102412.14
2018-04-17T07:14:52.487Z,102414.05
2018-04-17T07:15:58.657Z,102412.66
2018-04-17T07:17:04.093Z,102416.25
2018-04-17T07:18:08.986Z,102421.74
2018-04-17T07:19:13.715Z,102418.50
2018-04-17T07:20:19.450Z,102422.42
2018-04-17T07:21:24.429Z,102423.17
2018-04-17T07:22:28.567Z,102414.02
2018-04-17T07:23:32.855Z,102418.24
2018-04-17T07:24:38.249Z,102418.41
2018-04-17T07:25:43.161Z,102424.44
2018-04-17T07:26:48.732Z,102425.41
2018-04-17T07:27:52.864Z,102422.20
2018-04-17T07:28:58.602Z,102425.59
2018-04-17T07:30:06.413Z,102424.05
2018-04-17T07:31:12.239Z,102437.00
2018-04-17T07:32:16.992Z,102425.63
2018-04-17T07:33:23.974Z,102431.22
2018-04-17T07:34:30.113Z,102437.28
2018-04-17T07:35:34.993Z,102440.80
2018-04-17T07:36:40.552Z,102437.05
2018-04-17T07:37:46.162Z,102439.67
2018-04-17T07:38:54.495Z,102446.87
2018-04-17T07:40:00.120Z,102445.79
2018-04-17T07:41:05.512Z,102442.41
2018-04-17T07:42:10.875Z,102447.55
2018-04-17T07:43:16.551Z,102448.44
2018-04-17T07:44:21.697Z,102459.27
2018-04-17T07:45:27.784Z,102459.91
2018-04-17T07:46:33.103Z,102454.23
2018-04-17T07:47:39.017Z,102456.56
2018-04-17T07:48:49.058Z,102453.16
2018-04-17T07:49:53.922Z,102457.23
2018-04-17T07:50:59.128Z,102463.97
2018-04-17T07:52:07.052Z,102465.13
2018-04-17T07:53:11.167Z,102460.80
2018-04-17T07:54:16.625Z,102461.98
2018-04-17T07:55:22.170Z,102461.42
2018-04-17T07:56:27.577Z,102461.34
2018-04-17T07:57:39.650Z,102465.64
2018-04-17T07:58:44.432Z,102464.22
2018-04-17T07:59:49.682Z,102461.89
2018-04-17T08:00:55.125Z,102466.72
2018-04-17T08:02:01.409Z,102466.19
2018-04-17T08:03:07.476Z,102465.48
2018-04-17T08:04:12.075Z,102461.97
2018-04-17T08:05:20.625Z,102463.75
2018-04-17T08:06:28.044Z,102468.41
2018-04-17T08:07:32.240Z,102468.01
2018-04-17T08:08:36.984Z,102473.44
2018-04-17T08:09:42.809Z,102467.03
2018-04-17T08:10:47.204Z,102475.34
2018-04-17T08:11:51.682Z,102476.83
2018-04-17T08:12:57.757Z,102477.67
2018-04-17T08:14:04.015Z,102478.91
2018-04-17T08:15:09.354Z,102472.22
2018-04-17T08:16:14.809Z,102480.18
2018-04-17T08:17:20.325Z,102478.47
2018-04-17T08:18:27.998Z,102489.20
2018-04-17T08:19:32.910Z,102481.34
2018-04-17T08:20:38.418Z,102487.33
2018-04-17T08:21:43.347Z,102492.20
2018-04-17T08:22:49.128Z,102492.59
2018-04-17T08:23:53.948Z,102492.50
2018-04-17T08:24:58.076Z,102491.73
2018-04-17T08:26:10.095Z,102493.25
2018-04-17T08:27:15.370Z,102497.41
2018-04-17T08:28:20.507Z,102484.24
2018-04-17T08:29:25.981Z,102491.05
2018-04-17T08:30:31.676Z,102495.11
2018-04-17T08:31:37.633Z,102492.39
2018-04-17T08:32:43.345Z,102494.11
2018-04-17T08:33:49.996Z,102496.14
2018-04-17T08:34:54.847Z,102490.38
2018-04-17T08:35:59.036Z,102488.19
2018-04-17T08:37:04.760Z,102487.30
2018-04-17T08:38:11.846Z,102476.55
2018-04-17T08:39:27.389Z,102486.39
2018-04-17T08:40:33.193Z,102485.70
2018-04-17T08:41:37.636Z,102478.34
2018-04-17T08:42:42.834Z,102480.70
2018-04-17T08:43:47.009Z,102485.00
2018-04-17T08:44:51.846Z,102480.20
2018-04-17T08:45:57.607Z,102489.23
2018-04-17T08:47:02.388Z,102485.14
2018-04-17T08:48:08.199Z,102485.58
2018-04-17T08:49:15.541Z,102487.82
2018-04-17T08:50:21.054Z,102483.77
2018-04-17T08:51:26.297Z,102486.94
2018-04-17T08:52:31.753Z,102487.59
2018-04-17T08:53:36.646Z,102487.72
2018-04-17T08:54:41.530Z,102491.89
2018-04-17T08:55:47.036Z,102493.93
2018-04-17T08:56:52.641Z,102483.77
2018-04-17T08:57:58.545Z,102493.30
2018-04-17T08:59:05.458Z,102495.16
2018-04-17T09:00:10.738Z,102491.47
2018-04-17T09:01:16.231Z,102494.42
2018-04-17T09:02:21.705Z,102496.65
2018-04-17T09:03:26.615Z,102499.07
2018-04-17T09:04:31.470Z,102502.17
2018-04-17T09:05:36.977Z,102500.55
2018-04-17T09:06:41.806Z,102495.52
2018-04-17T09:07:47.320Z,102500.03
2018-04-17T09:08:52.788Z,102496.80
2018-04-17T09:09:57.011Z,102500.59
2018-04-17T09:11:02.064Z,102504.67
2018-04-17T09:12:19.988Z,102506.80
2018-04-17T09:13:26.148Z,102508.05
2018-04-17T09:14:30.274Z,102507.08
2018-04-17T09:15:36.885Z,102508.52
2018-04-17T09:16:41.707Z,102500.80
2018-04-17T09:17:47.614Z,102501.91
2018-04-17T09:18:53.275Z,102504.27
2018-04-17T09:19:58.722Z,102496.95
2018-04-17T09:21:04.140Z,102493.98
2018-04-17T09:22:09.776Z,102498.07
2018-04-17T09:23:15.412Z,102504.80
2018-04-17T09:24:20.526Z,102493.86
2018-04-17T09:25:26.354Z,102501.34
2018-04-17T09:26:31.545Z,102485.02
2018-04-17T09:27:36.373Z,102491.83
2018-04-17T09:28:41.569Z,102495.78
2018-04-17T09:29:47.330Z,102498.74
2018-04-17T09:30:53.686Z,102503.67
2018-04-17T09:31:58.497Z,102494.12
2018-04-17T09:33:03.392Z,102497.75
2018-04-17T09:34:08.152Z,102496.23
2018-04-17T09:35:12.911Z,102508.45
2018-04-17T09:36:18.457Z,102503.12
2018-04-17T09:37:23.305Z,102499.78
2018-04-17T09:38:31.964Z,102504.92
2018-04-17T09:39:36.106Z,102506.62
2018-04-17T09:40:41.369Z,102511.52
2018-04-17T09:41:45.517Z,102498.97
2018-04-17T09:42:50.987Z,102502.78
2018-04-17T09:44:00.045Z,102507.02
2018-04-17T09:45:16.634Z,102502.96
2018-04-17T09:46:22.742Z,102508.48
2018-04-17T09:47:27.952Z,102499.13
2018-04-17T09:48:32.807Z,102510.12
2018-04-17T09:49:46.641Z,102503.41
2018-04-17T09:50:51.828Z,102505.17
2018-04-17T09:51:58.916Z,102501.83
2018-04-17T09:53:04.398Z,102492.23
2018-04-17T09:54:09.208Z,102496.62
2018-04-17T09:55:14.038Z,102506.30
2018-04-17T09:56:19.140Z,102488.50
2018-04-17T09:57:23.274Z,102497.04
2018-04-17T09:58:31.319Z,102497.25
2018-04-17T09:59:35.661Z,102489.09
2018-04-17T10:00:44.639Z,102483.73
2018-04-17T10:01:50.012Z,102483.79
2018-04-17T10:02:55.164Z,102481.88
2018-04-17T10:03:59.955Z,102483.91
2018-04-17T10:05:06.460Z,102475.80
2018-04-17T10:06:10.803Z,102482.72
2018-04-17T10:07:14.960Z,102481.47
2018-04-17T10:08:19.810Z,102476.09
2018-04-17T10:09:24.614Z,102485.36
2018-04-17T10:10:29.700Z,102487.53
2018-04-17T10:11:34.570Z,102485.14
2018-04-17T10:12:40.129Z,102485.30
2018-04-17T10:13:45.438Z,102489.00
2018-04-17T10:14:51.840Z,102491.38
2018-04-17T10:15:57.778Z,102488.45
2018-04-17T10:17:02.079Z,102491.81
2018-04-17T10:18:08.414Z,102485.55
2018-04-17T10:19:15.152Z,102485.08
2018-04-17T10:20:23.781Z,102487.30
2018-04-17T10:21:30.659Z,102490.05
2018-04-17T10:22:34.876Z,102485.32
2018-04-17T10:23:39.202Z,102493.42
2018-04-17T10:24:45.284Z,102484.56
2018-04-17T10:25:51.383Z,102491.52
2018-04-17T10:26:56.560Z,102498.92
2018-04-17T10:28:01.899Z,102491.91
2018-04-17T10:29:07.235Z,102486.92
2018-04-17T10:30:14.733Z,102491.13
2018-04-17T10:31:20.265Z,102492.58
2018-04-17T10:32:26.093Z,102484.61
2018-04-17T10:33:31.891Z,102485.27
2018-04-17T10:34:36.734Z,102486.72
2018-04-17T10:35:42.247Z,102477.37
2018-04-17T10:36:47.078Z,102475.38
2018-04-17T10:37:53.258Z,102479.19
2018-04-17T10:38:58.462Z,102470.39
2018-04-17T10:40:02.954Z,102476.53
2018-04-17T10:41:14.098Z,102473.22
2018-04-17T10:42:24.082Z,102472.69
2018-04-17T10:43:29.020Z,102478.52
2018-04-17T10:44:41.356Z,102482.86
2018-04-17T10:45:48.502Z,102482.55
2018-04-17T10:46:54.078Z,102475.69
2018-04-17T10:48:01.556Z,102479.54
2018-04-17T10:49:07.158Z,102479.63
2018-04-17T10:50:13.431Z,102480.87
2018-04-17T10:51:18.388Z,102487.29
2018-04-17T10:52:23.508Z,102485.05
2018-04-17T10:53:28.383Z,102490.62
2018-04-17T10:54:33.987Z,102492.13
2018-04-17T10:55:39.655Z,102491.70
2018-04-17T10:56:44.627Z,102484.86
2018-04-17T10:57:49.502Z,102489.70
2018-04-17T10:58:55.252Z,102489.30
2018-04-17T11:00:01.273Z,102489.20
2018-04-17T11:01:06.768Z,102490.52
2018-04-17T11:02:12.220Z,102485.25
2018-04-17T11:03:17.058Z,102477.97
2018-04-17T11:04:22.082Z,102478.23
2018-04-17T11:05:27.527Z,102477.13
2018-04-17T11:06:33.564Z,102494.98
2018-04-17T11:07:38.802Z,102473.56
2018-04-17T11:08:43.999Z,102478.49
2018-04-17T11:09:49.689Z,102478.81
2018-04-17T11:10:54.551Z,102473.94
2018-04-17T11:11:59.360Z,102474.15
2018-04-17T11:13:04.687Z,102469.88
2018-04-17T11:14:10.411Z,102468.47
2018-04-17T11:15:18.435Z,102472.07
2018-04-17T11:16:23.547Z,102474.74
2018-04-17T11:17:28.346Z,102470.55
2018-04-17T11:18:33.478Z,102475.53
2018-04-17T11:19:39.018Z,102473.29
2018-04-17T11:20:43.164Z,102467.76
2018-04-17T11:21:48.044Z,102465.91
2018-04-17T11:22:53.703Z,102466.10
2018-04-17T11:23:58.842Z,102467.96
2018-04-17T11:25:11.797Z,102468.13
2018-04-17T11:26:16.748Z,102461.05
2018-04-17T11:27:22.290Z,102461.89
2018-04-17T11:28:27.144Z,102465.88
2018-04-17T11:29:32.034Z,102463.73
2018-04-17T11:30:37.866Z,102464.92
2018-04-17T11:31:43.763Z,102457.13
2018-04-17T11:32:48.078Z,102464.52
2018-04-17T11:33:52.972Z,102464.73
2018-04-17T11:34:59.597Z,102464.77
2018-04-17T11:36:05.692Z,102457.36
2018-04-17T11:37:11.653Z,102471.34
2018-04-17T11:38:16.840Z,102466.61
2018-04-17T11:39:23.595Z,102458.85
2018-04-17T11:40:28.710Z,102466.38
2018-04-17T11:41:33.356Z,102463.54
2018-04-17T11:42:37.456Z,102462.52
2018-04-17T11:43:42.840Z,102462.71
2018-04-17T11:44:47.904Z,102465.80
2018-04-17T11:45:52.793Z,102474.00
2018-04-17T11:46:58.679Z,102473.91
2018-04-17T11:48:04.206Z,102470.90
2018-04-17T11:49:09.769Z,102467.20
2018-04-17T11:50:14.545Z,102459.66
2018-04-17T11:51:20.108Z,102484.21
2018-04-17T11:52:25.257Z,102462.34
2018-04-17T11:53:30.074Z,102454.30
2018-04-17T11:54:35.229Z,102456.94
2018-04-17T11:55:40.739Z,102464.88
2018-04-17T11:56:47.208Z,102467.43
2018-04-17T11:57:52.928Z,102454.59
2018-04-17T11:58:59.527Z,102459.91
2018-04-17T12:00:07.651Z,102457.80
2018-04-17T12:01:14.600Z,102455.03
2018-04-17T12:02:20.257Z,102464.37
2018-04-17T12:03:25.439Z,102457.81
2018-04-17T12:04:31.095Z,102454.66
2018-04-17T12:05:35.428Z,102458.69
2018-04-17T12:06:40.332Z,102451.05
2018-04-17T12:07:46.235Z,102450.84
2018-04-17T12:08:50.854Z,102452.55
2018-04-17T12:09:57.586Z,102452.61
2018-04-17T12:11:05.629Z,102463.77
2018-04-17T12:12:10.475Z,102468.05
2018-04-17T12:13:15.424Z,102458.68
2018-04-17T12:14:20.919Z,102455.18
2018-04-17T12:15:26.270Z,102464.39
2018-04-17T12:16:31.953Z,102462.15
2018-04-17T12:17:37.260Z,102455.42
2018-04-17T12:18:44.125Z,102455.91
2018-04-17T12:19:52.133Z,102460.47
2018-04-17T12:20:57.817Z,102476.93
2018-04-17T12:22:02.003Z,102463.98
2018-04-17T12:23:07.405Z,102469.91
2018-04-17T12:24:13.954Z,102462.16
2018-04-17T12:25:18.132Z,102466.09
2018-04-17T12:26:23.265Z,102473.66
2018-04-17T12:27:28.947Z,102472.50
2018-04-17T12:28:34.019Z,102468.84
2018-04-17T12:29:39.551Z,102467.21
2018-04-17T12:30:46.311Z,102470.70
2018-04-17T12:31:51.979Z,102462.80
2018-04-17T12:32:58.926Z,102461.03
2018-04-17T12:34:03.904Z,102454.63